Time;durP1;ratioP1;P1;durP2;ratioP2;P2;SDS_P1;SDS_P2;PMS_P1;PMS_P2;Temp;Humidity;BMP_temperature;BMP_pressure;BME280_temperature;BME280_humidity;BME280_pressure;Samples;Min_cycle;Max_cycle;Signal;HPM_P1;HPM_P2
2022/04/26 03:37:58;;;;;;;11.70;7.00;;;;;;;11.89;71.83;100237.22;1692810;83;20965;-82
2022/04/26 03:40:25;;;;;;;16.45;6.80;;;;;;;12.02;71.79;100239.33;1692813;83;21016;-81
2022/04/26 03:42:52;;;;;;;12.78;7.20;;;;;;;12.12;71.41;100240.84;1693207;83;21292;-80
2022/04/26 03:45:19;;;;;;;9.75;6.20;;;;;;;12.23;71.09;100241.73;1694702;83;21394;-79
2022/04/26 03:47:47;;;;;;;12.82;7.22;;;;;;;12.36;70.77;100239.05;1692831;83;20920;-81
2022/04/26 03:50:24;;;;;;;12.20;6.70;;;;;;;12.50;70.53;100240.65;1682663;84;21451;-81
2022/04/26 03:52:52;;;;;;;8.78;6.00;;;;;;;12.55;70.23;100227.16;1704358;83;20945;-81
2022/04/26 03:55:20;;;;;;;10.90;6.35;;;;;;;12.78;70.19;100239.44;1704164;82;21040;-82
2022/04/26 03:57:48;;;;;;;10.90;6.80;;;;;;;12.98;69.88;100250.22;1703770;84;20901;-81
2022/04/26 04:00:15;;;;;;;9.78;6.80;;;;;;;13.17;69.70;100249.19;1703769;82;20933;-81
2022/04/26 04:02:43;;;;;;;7.22;5.30;;;;;;;13.42;69.46;100253.91;1703724;84;20870;-80
2022/04/26 04:05:13;;;;;;;8.15;6.10;;;;;;;13.75;69.10;100249.59;1703984;82;21169;-80
2022/04/26 04:07:42;;;;;;;11.68;7.10;;;;;;;14.12;68.38;100246.16;1704083;82;21232;-80
2022/04/26 04:10:10;;;;;;;11.03;6.22;;;;;;;14.54;67.26;100251.53;1703929;82;20934;-81
2022/04/26 04:12:39;;;;;;;13.03;7.33;;;;;;;14.85;66.36;100252.95;1703966;83;20945;-81
2022/04/26 04:15:07;;;;;;;8.35;6.78;;;;;;;15.04;65.16;100252.25;1698151;83;21424;-80
2022/04/26 04:17:35;;;;;;;16.48;8.40;;;;;;;15.15;64.21;100250.02;1698274;83;21018;-80
2022/04/26 04:20:04;;;;;;;10.18;6.60;;;;;;;15.20;63.76;100247.81;1698226;83;20974;-81
2022/04/26 04:22:32;;;;;;;10.43;7.12;;;;;;;15.21;63.03;100252.15;1698274;84;21586;-82
2022/04/26 04:24:59;;;;;;;9.83;5.45;;;;;;;15.21;63.03;100252.15;1698860;83;20938;-81
2022/04/26 04:27:25;;;;;;;12.23;6.90;;;;;;;15.23;63.41;100248.41;1699385;83;20923;-78
2022/04/26 04:29:54;;;;;;;11.10;6.40;;;;;;;15.24;63.31;100243.45;1699456;83;21037;-83
2022/04/26 04:32:21;;;;;;;10.75;5.75;;;;;;;15.55;63.60;100246.93;1698729;83;21806;-80
2022/04/26 04:34:48;;;;;;;11.73;6.15;;;;;;;15.55;63.60;100246.93;1698987;83;20915;-80
2022/04/26 04:37:15;;;;;;;11.08;6.30;;;;;;;15.71;63.19;100242.48;1699655;83;21030;-83
2022/04/26 04:39:43;;;;;;;11.95;6.08;;;;;;;15.86;62.08;100246.92;1698964;84;21518;-80
2022/04/26 04:42:13;;;;;;;17.45;9.03;;;;;;;16.02;61.85;100246.40;1698445;83;21045;-80
2022/04/26 04:44:39;;;;;;;17.70;11.05;;;;;;;16.27;61.57;100244.20;1698478;83;21156;-80
2022/04/26 04:47:07;;;;;;;46.15;25.00;;;;;;;16.55;61.66;100246.02;1698408;83;20883;-81
2022/04/26 04:49:35;;;;;;;45.63;25.25;;;;;;;16.88;61.14;100237.81;1698140;83;20915;-80
2022/04/26 04:52:02;;;;;;;43.28;24.12;;;;;;;17.14;59.95;100247.28;1698336;83;20883;-82
2022/04/26 04:54:28;;;;;;;39.30;23.92;;;;;;;17.25;59.43;100248.93;1698738;84;21449;-81
2022/04/26 04:56:55;;;;;;;41.18;19.73;;;;;;;17.31;59.17;100250.52;1698280;83;21145;-81
2022/04/26 04:59:21;;;;;;;23.00;15.50;;;;;;;17.58;58.65;100251.03;1698554;83;21021;-81
2022/04/26 05:01:49;;;;;;;19.62;10.88;;;;;;;18.08;58.25;100253.81;1698521;84;20875;-81
2022/04/26 05:04:16;;;;;;;22.42;12.15;;;;;;;18.69;56.32;100257.52;1698367;83;20923;-81
2022/04/26 05:06:43;;;;;;;12.30;6.30;;;;;;;19.32;55.10;100253.84;1698319;84;20919;-80
2022/04/26 05:09:10;;;;;;;11.63;4.72;;;;;;;19.96;53.04;100254.79;1698359;83;21148;-80
2022/04/26 05:11:38;;;;;;;6.78;4.08;;;;;;;20.58;49.42;100249.92;1698453;83;20955;-79
2022/04/26 05:14:07;;;;;;;8.03;5.10;;;;;;;21.15;47.68;100251.72;1699127;83;20962;-81
2022/04/26 05:16:34;;;;;;;8.45;5.05;;;;;;;21.70;46.57;100255.42;1698468;84;21481;-81
2022/04/26 05:19:00;;;;;;;5.53;4.10;;;;;;;22.22;46.30;100254.81;1698429;83;21428;-81
2022/04/26 05:21:26;;;;;;;11.08;5.35;;;;;;;22.68;44.90;100254.00;1698163;84;21212;-81
2022/04/26 05:26:39;;;;;;;5.70;3.58;;;;;;;23.54;43.19;100263.35;1698123;83;20935;-81
2022/04/26 05:29:07;;;;;;;5.53;2.92;;;;;;;24.03;42.97;100253.03;1698186;84;21369;-82
2022/04/26 05:31:35;;;;;;;3.98;3.10;;;;;;;24.37;39.24;100257.73;1698256;83;20962;-81
2022/04/26 05:34:01;;;;;;;2.98;2.10;;;;;;;24.58;38.69;100248.88;1698722;84;21137;-80
2022/04/26 05:36:29;;;;;;;4.05;2.80;;;;;;;24.84;37.56;100248.27;1701268;84;20907;-81
2022/04/26 05:38:56;;;;;;;4.12;2.70;;;;;;;25.09;36.92;100245.97;1701457;84;20945;-82
2022/04/26 05:41:23;;;;;;;3.92;2.55;;;;;;;25.31;36.19;100245.41;1701832;81;20970;-81
2022/04/26 05:43:50;;;;;;;3.85;2.30;;;;;;;25.44;35.48;100241.98;1701389;81;20895;-81
2022/04/26 05:46:17;;;;;;;6.47;2.62;;;;;;;25.57;35.34;100238.02;1698584;83;21190;-82
2022/04/26 05:48:45;;;;;;;5.35;2.10;;;;;;;25.73;34.86;100240.87;1698548;83;20966;-80
2022/04/26 05:51:12;;;;;;;6.65;2.52;;;;;;;25.87;34.41;100244.95;1698468;82;21005;-79
2022/04/26 05:53:38;;;;;;;4.03;2.22;;;;;;;25.97;34.05;100240.88;1713750;83;20945;-82
2022/04/26 05:56:08;;;;;;;3.40;2.52;;;;;;;26.02;34.04;100238.94;1698905;83;20964;-80
2022/04/26 05:58:35;;;;;;;11.38;4.08;;;;;;;26.08;34.00;100241.31;1693498;83;21138;-82
2022/04/26 06:01:03;;;;;;;2.95;2.08;;;;;;;26.24;34.03;100237.73;1692776;83;21537;-80
2022/04/26 06:03:31;;;;;;;4.97;1.70;;;;;;;26.45;33.28;100238.06;1693203;84;21416;-82
2022/04/26 06:05:57;;;;;;;4.25;2.08;;;;;;;26.70;32.67;100244.20;1692883;84;20964;-83
2022/04/26 06:08:24;;;;;;;4.58;1.95;;;;;;;26.91;32.21;100240.48;1692915;83;21040;-82
2022/04/26 06:10:51;;;;;;;5.60;1.62;;;;;;;26.95;31.70;100243.59;1692880;83;21285;-82
2022/04/26 06:14:11;;;;;;;3.30;2.10;;;;;;;27.15;31.83;100245.73;1816684;79;23164;-83
2022/04/26 06:16:38;;;;;;;2.72;1.98;;;;;;;27.24;31.30;100249.06;1789993;80;21441;-82
2022/04/26 06:19:08;;;;;;;2.22;1.82;;;;;;;27.41;31.31;100248.91;1790711;80;21164;-81
2022/04/26 06:21:36;;;;;;;3.05;1.60;;;;;;;27.59;31.27;100252.27;1790780;80;21468;-81
2022/04/26 06:24:05;;;;;;;3.45;1.47;;;;;;;27.81;30.76;100249.27;1790860;80;20952;-79
2022/04/26 06:26:31;;;;;;;2.40;1.12;;;;;;;28.01;30.25;100248.66;1791101;80;20877;-81
2022/04/26 06:29:02;;;;;;;2.85;1.37;;;;;;;28.25;29.96;100243.56;1791056;80;21413;-82
2022/04/26 06:31:30;;;;;;;4.85;1.87;;;;;;;28.35;29.05;100243.91;1790924;80;20904;-80
2022/04/26 06:33:58;;;;;;;3.12;1.42;;;;;;;28.42;28.88;100252.78;1790619;80;20908;-81
2022/04/26 06:36:25;;;;;;;2.70;1.35;;;;;;;28.48;28.68;100254.64;1791062;80;20895;-82
2022/04/26 06:38:53;;;;;;;4.00;1.12;;;;;;;28.63;28.56;100254.83;1790522;80;21349;-82
2022/04/26 06:41:20;;;;;;;2.15;1.45;;;;;;;28.81;27.75;100255.41;1791559;79;20888;-82
2022/04/26 06:43:48;;;;;;;4.10;1.15;;;;;;;28.85;27.34;100246.64;1790895;80;22018;-82
2022/04/26 06:46:16;;;;;;;5.80;1.35;;;;;;;28.91;27.39;100252.51;1790892;80;20927;-81
2022/04/26 06:48:48;;;;;;;5.97;2.00;;;;;;;29.06;27.78;100254.02;1791010;80;20912;-81
2022/04/26 06:51:12;;;;;;;2.58;1.40;;;;;;;29.32;27.71;100252.95;1790455;80;20923;-82
2022/04/26 06:53:38;;;;;;;2.85;1.10;;;;;;;29.52;26.30;100242.73;1790536;80;21365;-81
2022/04/26 06:56:05;;;;;;;2.92;1.00;;;;;;;29.54;26.20;100246.58;1790637;80;21146;-82
2022/04/26 06:58:33;;;;;;;13.83;2.10;;;;;;;29.57;27.08;100248.00;1790367;80;20989;-82
2022/04/26 07:01:01;;;;;;;1.40;1.02;;;;;;;29.71;26.87;100235.48;1790494;80;20939;-80
2022/04/26 07:03:27;;;;;;;4.65;1.85;;;;;;;29.84;26.00;100245.31;1790593;80;20987;-81
2022/04/26 07:05:55;;;;;;;3.37;1.20;;;;;;;29.86;26.23;100239.65;1790609;80;20916;-80
2022/04/26 07:08:22;;;;;;;2.98;1.60;;;;;;;29.91;26.03;100247.39;1790729;80;21199;-82
2022/04/26 07:10:51;;;;;;;1.62;1.35;;;;;;;29.91;25.85;100250.09;1790693;80;20915;-83
2022/04/26 07:13:20;;;;;;;2.05;1.82;;;;;;;29.96;26.43;100251.57;1787151;80;20998;-81
2022/04/26 07:15:47;;;;;;;4.03;1.80;;;;;;;29.99;26.11;100247.58;1785848;80;21421;-81
2022/04/26 07:18:15;;;;;;;4.87;1.62;;;;;;;30.14;26.35;100249.34;1786283;80;21389;-81
2022/04/26 07:20:46;;;;;;;2.37;1.50;;;;;;;30.38;26.08;100246.74;1786069;80;21194;-81
2022/04/26 07:23:13;;;;;;;2.15;1.37;;;;;;;30.46;26.19;100248.27;1786021;80;21334;-79
2022/04/26 07:25:41;;;;;;;4.92;1.25;;;;;;;30.51;25.88;100251.13;1785822;80;20888;-79
2022/04/26 07:28:11;;;;;;;2.80;1.80;;;;;;;30.63;25.85;100248.43;1785481;80;20968;-80
2022/04/26 07:30:41;;;;;;;3.75;1.30;;;;;;;30.63;25.81;100249.78;1756987;80;20883;-82
2022/04/26 07:35:53;;;;;;;3.95;2.20;;;;;;;30.59;26.51;100245.36;1785061;80;20912;-81
2022/04/26 07:38:22;;;;;;;26.50;1.98;;;;;;;30.58;26.37;100243.19;1785205;80;20877;-83
2022/04/26 07:40:49;;;;;;;1.65;1.55;;;;;;;30.61;26.37;100243.24;1785948;80;20943;-80
2022/04/26 07:43:16;;;;;;;10.82;2.17;;;;;;;30.66;26.17;100235.27;1786492;80;20935;-83
2022/04/26 07:45:45;;;;;;;5.03;2.00;;;;;;;30.68;26.02;100238.56;1785583;80;20979;-81
2022/04/26 07:48:16;;;;;;;2.42;1.32;;;;;;;30.60;26.18;100234.02;1785676;80;20888;-81
2022/04/26 07:50:46;;;;;;;2.35;1.25;;;;;;;30.48;26.05;100238.89;1785499;80;21010;-82
2022/04/26 07:53:17;;;;;;;;;;;;;;;30.52;26.39;100239.23;1787924;80;20955;-82
2022/04/26 07:55:47;;;;;;;3.83;1.12;;;;;;;30.73;26.47;100238.67;1785141;80;20193;-82
2022/04/26 07:58:15;;;;;;;0.78;0.62;;;;;;;31.01;25.64;100236.34;1785095;80;20948;-80
2022/04/26 08:00:42;;;;;;;6.20;0.88;;;;;;;31.31;25.69;100240.27;1784432;80;20888;-82
2022/04/26 08:03:09;;;;;;;2.55;0.90;;;;;;;31.55;24.64;100240.54;1783830;80;20896;-81
2022/04/26 08:05:36;;;;;;;1.92;0.88;;;;;;;31.70;23.95;100245.42;1783969;80;20944;-81
2022/04/26 08:08:05;;;;;;;3.05;0.80;;;;;;;31.77;23.81;100236.64;1783923;80;21507;-81
2022/04/26 08:10:35;;;;;;;1.10;0.93;;;;;;;31.80;23.84;100240.75;1759425;80;21901;-80
2022/04/26 08:13:03;;;;;;;1.27;0.78;;;;;;;31.84;24.05;100244.63;1782159;80;20935;-81
2022/04/26 08:15:40;;;;;;;2.08;0.85;;;;;;;31.96;23.19;100241.86;1776798;80;21484;-83
2022/04/26 08:18:10;;;;;;;0.65;0.50;;;;;;;31.81;23.64;100240.48;1774209;80;20920;-82
2022/04/26 08:20:39;;;;;;;3.42;1.00;;;;;;;31.76;23.62;100238.22;1775415;80;20920;-81
2022/04/26 08:23:10;;;;;;;1.47;1.07;;;;;;;31.78;23.95;100240.98;1775425;80;20924;-81
2022/04/26 08:28:24;;;;;;;1.52;1.10;;;;;;;31.92;23.29;100239.33;1756731;80;20873;-82
2022/04/26 08:30:53;;;;;;;2.37;1.00;;;;;;;31.94;22.87;100238.02;1775295;80;21477;-82
2022/04/26 08:33:21;;;;;;;2.40;0.55;;;;;;;31.87;22.79;100243.31;1775451;80;20897;-82
2022/04/26 08:35:47;;;;;;;2.80;0.70;;;;;;;31.73;23.15;100249.56;1775601;80;21195;-81
2022/04/26 08:38:15;;;;;;;3.12;1.00;;;;;;;31.68;23.48;100238.06;1775203;80;20936;-81
2022/04/26 08:40:43;;;;;;;1.12;0.78;;;;;;;31.69;23.69;100236.19;1775319;80;21327;-81
2022/04/26 08:43:10;;;;;;;4.65;1.10;;;;;;;31.65;23.74;100240.45;1775534;80;20893;-81
2022/04/26 08:45:41;;;;;;;1.75;0.55;;;;;;;31.61;23.53;100237.37;1774564;79;21055;-81
2022/04/26 08:51:00;;;;;;;2.62;1.00;;;;;;;31.39;23.96;100238.52;1770353;80;21446;-82
2022/04/26 08:53:29;;;;;;;2.25;0.70;;;;;;;31.26;24.33;100237.43;1773573;80;20902;-80
2022/04/26 08:56:01;;;;;;;2.70;1.00;;;;;;;31.18;24.72;100239.45;1773721;80;20937;-81
2022/04/26 08:58:31;;;;;;;0.90;0.72;;;;;;;31.25;24.48;100235.80;1773199;81;20893;-82
2022/04/26 09:01:19;;;;;;;3.70;1.10;;;;;;;31.24;24.27;100236.33;1772662;80;21292;-80
2022/04/26 09:03:58;;;;;;;3.33;0.70;;;;;;;31.40;24.16;100238.30;1770057;80;20928;-82
2022/04/26 09:06:45;;;;;;;1.72;0.80;;;;;;;31.26;23.98;100232.86;1770716;80;21015;-80
2022/04/26 09:09:22;;;;;;;4.40;1.55;;;;;;;30.88;23.70;100238.75;1770243;80;20947;-81
2022/04/26 09:11:48;;;;;;;2.00;1.20;;;;;;;30.28;24.45;100235.66;1770058;80;20849;-82
2022/04/26 09:14:32;;;;;;;1.00;0.90;;;;;;;29.96;24.63;100232.64;1773700;80;21145;-81
2022/04/26 09:17:07;;;;;;;1.25;1.02;;;;;;;29.72;25.01;100239.00;1775818;80;21070;-82
2022/04/26 09:19:50;;;;;;;2.25;1.00;;;;;;;29.73;25.48;100241.48;1775440;80;21471;-80
2022/04/26 09:22:21;;;;;;;1.67;1.00;;;;;;;29.55;26.05;100238.25;1776041;80;20906;-81
2022/04/26 09:24:58;;;;;;;2.30;0.82;;;;;;;29.57;26.73;100237.19;1775890;80;20932;-81
2022/04/26 09:27:25;;;;;;;1.77;0.80;;;;;;;29.59;26.63;100231.84;1775769;80;21236;-81
2022/04/26 09:29:52;;;;;;;0.85;0.70;;;;;;;29.78;26.70;100239.98;1775729;80;20865;-83
2022/04/26 09:32:20;;;;;;;1.52;0.70;;;;;;;30.12;26.71;100237.11;1775820;80;20845;-82
2022/04/26 09:34:47;;;;;;;2.40;0.95;;;;;;;30.41;25.89;100235.45;1775835;80;21050;-82
2022/04/26 09:37:16;;;;;;;1.17;0.90;;;;;;;30.63;25.08;100233.55;1775766;80;21512;-83
2022/04/26 09:40:02;;;;;;;5.90;1.10;;;;;;;30.75;25.28;100239.27;1777540;80;21206;-82
2022/04/26 09:42:31;;;;;;;1.95;0.80;;;;;;;30.88;25.09;100239.61;1775928;80;21381;-82
2022/04/26 09:45:09;;;;;;;2.25;0.93;;;;;;;31.16;24.95;100246.98;1775697;80;21359;-83
2022/04/26 09:47:41;;;;;;;4.58;0.70;;;;;;;31.45;24.67;100242.21;1775753;80;20928;-81
2022/04/26 09:50:16;;;;;;;0.95;0.80;;;;;;;31.56;24.31;100243.52;1775900;80;20908;-81
2022/04/26 09:52:41;;;;;;;0.90;0.55;;;;;;;31.52;24.28;100235.58;1775238;80;21262;-82
2022/04/26 09:55:10;;;;;;;2.08;1.12;;;;;;;31.57;23.54;100239.77;1776112;80;20936;-81
2022/04/26 09:57:38;;;;;;;1.07;1.00;;;;;;;31.54;23.33;100239.41;1775988;80;20909;-81
2022/04/26 10:00:09;;;;;;;1.92;0.50;;;;;;;31.33;23.44;100238.97;1775780;80;20943;-81
2022/04/26 10:02:45;;;;;;;4.85;1.15;;;;;;;31.28;24.13;100238.86;1776089;80;20931;-80
2022/04/26 10:05:11;;;;;;;8.28;0.93;;;;;;;31.28;23.61;100237.52;1774927;80;21251;-80
2022/04/26 10:07:46;;;;;;;1.17;0.62;;;;;;;31.29;23.32;100244.56;1775769;80;20877;-82
2022/04/26 10:10:14;;;;;;;1.82;0.70;;;;;;;31.27;23.47;100241.27;1775813;80;20920;-80
2022/04/26 10:12:41;;;;;;;4.08;0.80;;;;;;;31.19;22.87;100242.47;1775634;80;20932;-82
2022/04/26 10:15:08;;;;;;;2.80;0.68;;;;;;;31.12;23.10;100236.86;1771212;80;20952;-80
2022/04/26 10:17:35;;;;;;;5.97;0.70;;;;;;;31.07;23.39;100234.87;1744952;81;21219;-80
2022/04/26 10:20:05;;;;;;;1.77;0.65;;;;;;;31.19;24.18;100244.33;1770637;80;20901;-82
2022/04/26 10:23:01;;;;;;;1.52;0.70;;;;;;;31.32;23.53;100235.12;1770790;80;20887;-80
2022/04/26 10:25:27;;;;;;;2.30;0.75;;;;;;;31.42;24.03;100238.63;1771030;80;20925;-81
2022/04/26 10:28:21;;;;;;;3.77;1.30;;;;;;;31.49;23.33;100232.00;1770303;80;21023;-81
2022/04/26 10:30:54;;;;;;;1.98;1.00;;;;;;;31.59;23.77;100235.44;1764026;81;21252;-81
2022/04/26 10:33:38;;;;;;;4.47;1.00;;;;;;;31.65;23.10;100241.27;1770260;81;20849;-81
2022/04/26 10:36:30;;;;;;;2.27;0.90;;;;;;;31.58;23.09;100227.84;1767184;81;21011;-81
2022/04/26 10:39:13;;;;;;;5.75;1.35;;;;;;;31.62;23.06;100235.48;1770254;81;21490;-81
2022/04/26 10:41:43;;;;;;;3.83;1.57;;;;;;;31.60;23.23;100241.17;1770705;80;20893;-81
2022/04/26 10:44:23;;;;;;;1.52;1.42;;;;;;;31.60;22.67;100237.10;1770186;80;21752;-81
2022/04/26 10:47:05;;;;;;;4.62;0.82;;;;;;;31.52;22.70;100233.41;1770237;81;20897;-80
2022/04/26 10:49:42;;;;;;;4.20;1.20;;;;;;;31.42;23.10;100237.28;1770232;80;20908;-82
2022/04/26 10:52:18;;;;;;;2.05;0.80;;;;;;;31.30;23.23;100238.06;1770255;80;20940;-82
2022/04/26 10:55:03;;;;;;;3.27;1.17;;;;;;;31.23;24.07;100236.02;1770273;80;21014;-81
2022/04/26 10:57:39;;;;;;;3.92;0.90;;;;;;;31.37;23.65;100236.58;1770199;80;21906;-79
2022/04/26 11:00:20;;;;;;;3.02;0.98;;;;;;;31.42;23.61;100227.80;1770321;80;20908;-82
2022/04/26 11:02:50;;;;;;;5.58;1.77;;;;;;;31.36;23.69;100229.53;1770508;80;21035;-80
2022/04/26 11:05:27;;;;;;;3.75;1.07;;;;;;;31.31;23.50;100233.50;1770410;81;20873;-81
2022/04/26 11:07:55;;;;;;;6.47;1.00;;;;;;;31.33;23.25;100240.86;1771340;81;20952;-82
2022/04/26 11:10:25;;;;;;;2.42;0.98;;;;;;;31.34;23.25;100234.36;1770728;80;21138;-81
2022/04/26 11:12:52;;;;;;;2.92;1.15;;;;;;;31.34;23.23;100233.01;1770434;80;20893;-81
2022/04/26 11:15:23;;;;;;;1.55;0.90;;;;;;;31.30;23.63;100238.61;1770388;80;20995;-81
2022/04/26 11:17:52;;;;;;;3.67;1.15;;;;;;;31.26;23.87;100224.73;1770449;81;20873;-83
2022/04/26 11:20:20;;;;;;;4.12;0.85;;;;;;;31.19;22.95;100218.59;1770695;81;20964;-81
2022/04/26 11:22:49;;;;;;;6.00;1.55;;;;;;;31.04;23.49;100212.33;1770514;81;21735;-83
2022/04/26 11:28:11;;;;;;;2.50;0.80;;;;;;;30.95;24.68;100205.63;1770533;81;21431;-81
2022/04/26 11:30:45;;;;;;;3.35;1.50;;;;;;;31.00;24.98;100213.05;1770365;81;20967;-82
2022/04/26 11:33:24;;;;;;;5.42;1.52;;;;;;;30.96;24.67;100205.91;1770713;80;20984;-82
2022/04/26 11:36:02;;;;;;;4.12;1.85;;;;;;;30.93;24.38;100199.63;1770491;80;21367;-81
2022/04/26 11:38:30;;;;;;;5.47;1.87;;;;;;;30.73;25.02;100203.48;1770362;80;20880;-82
2022/04/26 11:41:01;;;;;;;3.27;1.10;;;;;;;30.50;24.92;100208.33;1770371;80;20901;-81
2022/04/26 11:43:33;;;;;;;2.12;0.88;;;;;;;30.33;25.06;100207.39;1770497;80;20924;-81
2022/04/26 11:46:02;;;;;;;2.60;0.90;;;;;;;30.22;25.35;100200.87;1770695;80;20885;-81
2022/04/26 11:48:36;;;;;;;3.58;1.17;;;;;;;30.08;25.87;100196.20;1770357;81;21881;-82
2022/04/26 11:51:06;;;;;;;5.65;1.07;;;;;;;29.90;26.02;100197.08;1770807;80;20889;-80
2022/04/26 11:53:36;;;;;;;4.15;1.25;;;;;;;29.62;25.36;100198.98;1771425;80;21049;-82
2022/04/26 11:56:08;;;;;;;2.35;1.10;;;;;;;29.25;25.88;100202.24;1770570;80;21055;-82
2022/04/26 11:58:38;;;;;;;4.17;1.05;;;;;;;28.97;26.93;100199.52;1770386;80;20897;-82
2022/04/26 12:01:11;;;;;;;4.70;0.80;;;;;;;28.75;26.49;100197.75;1770590;80;21470;-82
2022/04/26 12:03:49;;;;;;;1.12;0.72;;;;;;;28.53;26.89;100194.62;1770449;80;20897;-80
2022/04/26 12:06:28;;;;;;;3.45;1.17;;;;;;;28.31;27.44;100200.36;1770405;80;20952;-81
2022/04/26 12:09:05;;;;;;;5.33;0.85;;;;;;;28.13;27.95;100196.78;1770316;80;20872;-82
2022/04/26 12:11:37;;;;;;;5.20;1.05;;;;;;;27.97;28.81;100202.99;1770440;80;20869;-80
2022/04/26 12:14:16;;;;;;;1.95;0.98;;;;;;;27.77;29.38;100216.55;1770060;80;21639;-81
2022/04/26 12:16:49;;;;;;;2.37;1.05;;;;;;;27.55;30.07;100211.16;1768448;81;21413;-81
2022/04/26 12:19:16;;;;;;;3.75;1.12;;;;;;;27.37;29.90;100211.33;1768612;81;20972;-80
2022/04/26 12:21:47;;;;;;;2.25;1.50;;;;;;;27.09;30.39;100211.57;1768433;81;20869;-81
2022/04/26 12:24:23;;;;;;;4.75;0.90;;;;;;;26.92;31.71;100215.21;1768302;80;21027;-80
2022/04/26 12:26:59;;;;;;;1.62;1.00;;;;;;;26.81;31.71;100205.94;1768517;81;21225;-82
2022/04/26 12:29:32;;;;;;;2.50;1.27;;;;;;;26.67;32.25;100202.41;1768476;81;20944;-81
2022/04/26 12:31:59;;;;;;;1.65;0.90;;;;;;;26.51;32.00;100208.70;1767257;81;20904;-81
2022/04/26 12:34:31;;;;;;;5.95;1.25;;;;;;;26.31;32.15;100213.55;1742886;81;21019;-82
2022/04/26 12:37:07;;;;;;;3.92;1.07;;;;;;;26.10;32.74;100200.28;1769793;80;20932;-79
2022/04/26 12:39:44;;;;;;;2.65;1.67;;;;;;;26.03;32.71;100204.30;1768557;80;21313;-80
2022/04/26 12:42:14;;;;;;;2.17;0.95;;;;;;;26.00;32.91;100210.09;1768416;81;20861;-80
2022/04/26 12:45:00;;;;;;;3.47;1.17;;;;;;;25.97;32.82;100203.79;1768441;81;20892;-81
2022/04/26 12:50:31;;;;;;;1.05;0.70;;;;;;;25.81;33.25;100206.27;1768564;81;21244;-80
2022/04/26 12:53:01;;;;;;;1.57;0.60;;;;;;;25.74;32.84;100206.77;1768483;80;21351;-80
2022/04/26 12:55:42;;;;;;;3.72;0.75;;;;;;;25.63;32.95;100209.03;1768411;81;20929;-80
2022/04/26 12:58:13;;;;;;;2.90;0.90;;;;;;;25.56;33.16;100205.47;1768704;80;20940;-81
2022/04/26 13:00:47;;;;;;;3.90;0.75;;;;;;;25.50;34.32;100203.61;1768349;80;20913;-80
2022/04/26 13:03:17;;;;;;;7.83;2.17;;;;;;;25.45;33.08;100204.70;1768367;80;21090;-81
2022/04/26 13:05:50;;;;;;;2.70;1.70;;;;;;;25.35;32.64;100210.44;1768506;81;21748;-80
2022/04/26 13:08:20;;;;;;;2.30;0.78;;;;;;;25.24;33.03;100211.01;1768381;81;21536;-79
2022/04/26 13:10:49;;;;;;;2.45;0.98;;;;;;;25.11;33.78;100205.02;1768503;81;20952;-80
2022/04/26 13:13:18;;;;;;;2.80;1.05;;;;;;;25.00;34.05;100205.56;1768398;80;20941;-79
2022/04/26 13:15:46;;;;;;;5.08;1.10;;;;;;;24.94;34.67;100207.69;1769686;80;20933;-80
2022/04/26 13:18:15;;;;;;;2.42;0.70;;;;;;;24.85;33.89;100203.50;1770328;80;21414;-80
2022/04/26 13:20:44;;;;;;;1.47;0.80;;;;;;;24.74;34.23;100203.00;1771208;81;21414;-81
2022/04/26 13:23:16;;;;;;;3.30;0.88;;;;;;;24.66;34.08;100201.00;1770720;81;20978;-80
2022/04/26 13:25:43;;;;;;;1.72;0.90;;;;;;;24.54;34.01;100204.19;1770322;80;20897;-81
2022/04/26 13:28:11;;;;;;;2.77;1.07;;;;;;;24.44;34.88;100202.33;1770453;80;20849;-79
2022/04/26 13:30:39;;;;;;;2.37;1.15;;;;;;;24.32;34.94;100206.54;1770368;80;20881;-81
2022/04/26 13:33:06;;;;;;;4.37;1.77;;;;;;;24.21;34.63;100209.21;1770409;81;20984;-79
2022/04/26 13:35:37;;;;;;;3.98;1.00;;;;;;;24.13;35.35;100208.02;1770411;80;20893;-79
2022/04/26 13:38:10;;;;;;;3.08;0.95;;;;;;;24.06;35.09;100214.66;1770265;80;20920;-80
2022/04/26 13:40:38;;;;;;;5.30;1.77;;;;;;;24.02;34.59;100212.55;1770271;80;21429;-80
2022/04/26 13:43:08;;;;;;;2.70;1.15;;;;;;;23.97;35.27;100215.80;1770545;80;21229;-78
2022/04/26 13:45:36;;;;;;;3.00;1.70;;;;;;;23.94;35.52;100214.30;1770247;80;21484;-82
2022/04/26 13:48:09;;;;;;;3.27;1.22;;;;;;;23.91;35.06;100205.83;1770514;81;20893;-81
2022/04/26 13:50:37;;;;;;;5.10;1.30;;;;;;;23.87;35.57;100206.70;1770185;80;20952;-82
2022/04/26 13:53:03;;;;;;;3.33;1.35;;;;;;;23.85;35.71;100211.94;1770388;80;20881;-80
2022/04/26 13:55:32;;;;;;;3.10;1.27;;;;;;;23.80;35.70;100217.86;1770341;80;21226;-82
2022/04/26 13:58:03;;;;;;;4.75;1.57;;;;;;;23.73;35.65;100209.72;1770329;80;20854;-81
2022/04/26 14:00:30;;;;;;;3.98;0.80;;;;;;;23.67;35.82;100228.38;1770431;80;20916;-82
2022/04/26 14:02:57;;;;;;;3.58;1.57;;;;;;;23.58;35.97;100225.80;1770364;80;21067;-83
2022/04/26 14:05:25;;;;;;;8.15;2.12;;;;;;;23.53;36.27;100227.39;1771966;80;20900;-80
2022/04/26 14:07:53;;;;;;;6.05;1.87;;;;;;;23.48;36.95;100219.92;1770912;81;20871;-81
2022/04/26 14:10:21;;;;;;;4.05;1.95;;;;;;;23.44;37.13;100221.30;1771633;80;20889;-83
2022/04/26 14:12:48;;;;;;;4.17;1.52;;;;;;;23.42;37.40;100226.52;1771444;81;20933;-81
2022/04/26 14:23:35;;;;;;;7.70;3.10;;;;;;;23.20;37.53;100225.09;1770414;80;21529;-81
2022/04/26 14:26:06;;;;;;;4.20;1.50;;;;;;;23.17;37.70;100223.62;1770630;80;21015;-81
2022/04/26 14:28:39;;;;;;;5.30;1.10;;;;;;;23.15;37.24;100226.98;1770616;80;21414;-81
2022/04/26 14:31:06;;;;;;;2.10;0.95;;;;;;;23.13;36.54;100228.19;1770746;81;20975;-81
2022/04/26 14:33:34;;;;;;;3.70;1.20;;;;;;;23.10;35.98;100232.06;1769764;80;20920;-82
2022/04/26 14:36:01;;;;;;;1.37;0.70;;;;;;;23.08;35.87;100239.44;1770993;80;20928;-83
2022/04/26 14:38:29;;;;;;;4.42;1.00;;;;;;;23.05;35.05;100236.28;1770988;80;20893;-82
2022/04/26 14:40:55;;;;;;;4.22;1.45;;;;;;;23.02;35.03;100238.00;1770879;80;20948;-81
2022/04/26 14:43:24;;;;;;;4.58;1.00;;;;;;;22.98;35.08;100237.48;1770390;80;20845;-82
2022/04/26 14:45:53;;;;;;;1.80;1.10;;;;;;;22.92;34.70;100236.39;1770865;81;21124;-80
2022/04/26 14:48:20;;;;;;;5.90;1.00;;;;;;;22.88;35.08;100235.60;1771060;80;20928;-81
2022/04/26 14:50:47;;;;;;;11.57;1.60;;;;;;;22.83;34.98;100245.98;1772407;81;20928;-81
2022/04/26 14:53:14;;;;;;;3.10;1.60;;;;;;;22.77;35.08;100238.20;1770947;81;21374;-82
2022/04/26 14:55:42;;;;;;;3.92;1.65;;;;;;;22.71;35.41;100247.77;1770717;80;20860;-85
2022/04/26 14:58:11;;;;;;;3.47;1.87;;;;;;;22.67;36.08;100245.63;1770939;80;21858;-81
2022/04/26 15:00:37;;;;;;;4.22;1.55;;;;;;;22.61;35.85;100245.86;1770648;80;20917;-82
2022/04/26 15:03:11;;;;;;;5.87;1.67;;;;;;;22.56;36.05;100253.05;1770912;80;20952;-83
2022/04/26 15:05:38;;;;;;;3.52;1.10;;;;;;;22.53;36.00;100248.59;1770680;81;21018;-82
2022/04/26 15:10:50;;;;;;;3.20;1.30;;;;;;;22.43;35.87;100254.67;1770681;80;21864;-81
2022/04/26 15:18:48;;;;;;;4.90;2.47;;;;;;;22.26;35.93;100249.45;1776508;80;20900;-80
2022/04/26 15:21:18;;;;;;;6.70;2.27;;;;;;;22.21;36.04;100249.61;1776358;80;21004;-80
2022/04/26 15:23:46;;;;;;;5.95;2.08;;;;;;;22.15;36.61;100256.00;1776364;80;20908;-81
2022/04/26 15:26:13;;;;;;;4.75;1.30;;;;;;;22.11;36.87;100261.87;1776496;80;20888;-80
2022/04/26 15:28:41;;;;;;;4.40;1.90;;;;;;;22.06;36.98;100261.58;1776381;80;20900;-81
2022/04/26 15:31:13;;;;;;;9.23;2.60;;;;;;;22.00;37.41;100264.43;1776302;80;21374;-82
2022/04/26 15:33:41;;;;;;;9.38;2.33;;;;;;;21.93;37.64;100269.64;1776749;80;20856;-79
2022/04/26 15:36:11;;;;;;;6.62;2.20;;;;;;;21.88;38.00;100266.67;1747433;80;20948;-81
2022/04/26 15:38:39;;;;;;;5.47;1.80;;;;;;;21.82;37.92;100263.35;1777350;80;21405;-81
2022/04/26 15:41:07;;;;;;;5.25;2.30;;;;;;;21.76;38.35;100272.56;1777366;80;20885;-82
2022/04/26 15:43:34;;;;;;;5.33;1.60;;;;;;;21.69;38.70;100272.42;1777157;80;20944;-81
2022/04/26 15:46:03;;;;;;;7.40;1.80;;;;;;;21.64;39.00;100272.12;1777301;80;20892;-81
2022/04/26 15:48:34;;;;;;;6.50;2.17;;;;;;;21.56;39.13;100267.63;1776149;80;21419;-83